createdAt,value
2024-02-05T00:00:55.088Z,565.00
2024-02-05T00:01:55.038Z,565.00
2024-02-05T00:02:55.026Z,566.00
2024-02-05T00:03:55.067Z,567.00
2024-02-05T00:04:55.122Z,566.00
2024-02-05T00:05:55.187Z,564.00
2024-02-05T00:06:55.596Z,562.00
2024-02-05T00:07:58.712Z,561.00
2024-02-05T00:08:55.243Z,561.00
2024-02-05T00:09:55.309Z,562.00
2024-02-05T00:10:55.247Z,561.00
2024-02-05T00:11:55.261Z,562.00
2024-02-05T00:12:55.261Z,562.00
2024-02-05T00:13:55.285Z,563.00
2024-02-05T00:14:55.253Z,563.00
2024-02-05T00:15:55.299Z,565.00
2024-02-05T00:16:55.238Z,562.00
2024-02-05T00:17:55.266Z,559.00
2024-02-05T00:18:55.303Z,560.00
2024-02-05T00:19:55.328Z,561.00
2024-02-05T00:20:55.282Z,560.00
2024-02-05T00:21:55.255Z,562.00
2024-02-05T00:22:55.307Z,563.00
2024-02-05T00:23:55.248Z,564.00
2024-02-05T00:24:55.306Z,564.00
2024-02-05T00:25:55.268Z,562.00
2024-02-05T00:26:55.267Z,560.00
2024-02-05T00:27:55.294Z,559.00
2024-02-05T00:28:55.247Z,560.00
2024-02-05T00:29:55.280Z,561.00
2024-02-05T00:30:55.319Z,565.00
2024-02-05T00:31:55.263Z,565.00
2024-02-05T00:32:55.296Z,565.00
2024-02-05T00:33:55.329Z,565.00
2024-02-05T00:34:55.334Z,560.00
2024-02-05T00:35:55.278Z,558.00
2024-02-05T00:36:55.321Z,559.00
2024-02-05T00:37:55.266Z,559.00
2024-02-05T00:38:55.270Z,560.00
2024-02-05T00:39:55.303Z,560.00
2024-02-05T00:40:55.267Z,561.00
2024-02-05T00:41:55.311Z,560.00
2024-02-05T00:42:55.349Z,560.00
2024-02-05T00:43:55.292Z,560.00
2024-02-05T00:44:55.287Z,560.00
2024-02-05T00:45:55.328Z,560.00
2024-02-05T00:46:55.287Z,562.00
2024-02-05T00:47:55.335Z,561.00
2024-02-05T00:48:55.341Z,560.00
2024-02-05T00:49:55.369Z,560.00
2024-02-05T00:50:55.275Z,560.00
2024-02-05T00:51:55.332Z,559.00
2024-02-05T00:52:55.304Z,559.00
2024-02-05T00:53:55.275Z,558.00
2024-02-05T00:54:55.311Z,557.00
2024-02-05T00:55:55.307Z,557.00
2024-02-05T00:56:55.300Z,556.00
2024-02-05T00:57:55.372Z,553.00
2024-02-05T00:58:55.303Z,555.00
2024-02-05T00:59:55.309Z,555.00
2024-02-05T01:00:55.333Z,555.00
2024-02-05T01:01:55.425Z,557.00
2024-02-05T01:02:55.296Z,556.00
2024-02-05T01:03:55.424Z,559.00
2024-02-05T01:04:55.444Z,561.00
2024-02-05T01:05:59.067Z,564.00
2024-02-05T01:06:55.538Z,564.00
2024-02-05T01:07:55.387Z,566.00
2024-02-05T01:08:55.338Z,566.00
2024-02-05T01:09:55.361Z,567.00
2024-02-05T01:10:55.358Z,569.00
2024-02-05T01:11:55.348Z,565.00
2024-02-05T01:12:55.410Z,564.00
2024-02-05T01:13:55.341Z,563.00
2024-02-05T01:14:55.331Z,562.00
2024-02-05T01:15:55.393Z,560.00
2024-02-05T01:16:55.363Z,561.00
2024-02-05T01:17:55.398Z,558.00
2024-02-05T01:18:55.456Z,557.00
2024-02-05T01:19:55.479Z,559.00
2024-02-05T01:20:55.356Z,559.00
2024-02-05T01:21:55.456Z,561.00
2024-02-05T01:22:55.391Z,561.00
2024-02-05T01:23:55.420Z,560.00
2024-02-05T01:24:55.402Z,560.00
2024-02-05T01:25:55.354Z,560.00
2024-02-05T01:26:55.405Z,559.00
2024-02-05T01:27:55.401Z,560.00
2024-02-05T01:28:55.383Z,559.00
2024-02-05T01:29:55.409Z,557.00
2024-02-05T01:30:55.429Z,560.00
2024-02-05T01:31:55.377Z,560.00
2024-02-05T01:32:55.407Z,557.00
2024-02-05T01:33:55.455Z,556.00
2024-02-05T01:34:55.465Z,553.00
2024-02-05T01:35:55.376Z,554.00
2024-02-05T01:36:55.410Z,553.00
2024-02-05T01:37:55.372Z,554.00
2024-02-05T01:38:55.401Z,554.00
2024-02-05T01:39:55.507Z,553.00
2024-02-05T01:40:55.486Z,553.00
2024-02-05T01:41:55.553Z,555.00
2024-02-05T01:42:55.680Z,556.00
2024-02-05T01:43:55.671Z,556.00
2024-02-05T01:44:55.719Z,550.00
2024-02-05T01:45:55.852Z,551.00
2024-02-05T01:46:55.830Z,551.00
2024-02-05T01:47:55.912Z,550.00
2024-02-05T01:48:55.999Z,549.00
2024-02-05T01:49:56.926Z,549.00
2024-02-05T01:50:56.046Z,551.00
2024-02-05T01:51:56.096Z,549.00
2024-02-05T01:52:56.108Z,550.00
2024-02-05T01:53:56.138Z,549.00
2024-02-05T01:54:56.226Z,550.00
2024-02-05T01:55:56.244Z,552.00
2024-02-05T01:56:56.304Z,550.00
2024-02-05T01:57:56.358Z,549.00
2024-02-05T01:58:56.394Z,547.00
2024-02-05T01:59:56.419Z,547.00
2024-02-05T02:00:56.583Z,549.00
2024-02-05T02:01:56.594Z,552.00
2024-02-05T02:02:56.557Z,553.00
2024-02-05T02:03:56.695Z,554.00
2024-02-05T02:04:56.827Z,557.00
2024-02-05T02:05:56.793Z,558.00
2024-02-05T02:06:56.860Z,557.00
2024-02-05T02:07:56.851Z,559.00
2024-02-05T02:08:56.881Z,561.00
2024-02-05T02:09:56.966Z,560.00
2024-02-05T02:10:56.964Z,560.00
2024-02-05T02:11:56.984Z,563.00
2024-02-05T02:12:57.083Z,564.00
2024-02-05T02:13:57.081Z,565.00
2024-02-05T02:14:57.129Z,565.00
2024-02-05T02:15:57.225Z,564.00
2024-02-05T02:16:57.244Z,564.00
2024-02-05T02:17:57.302Z,563.00
2024-02-05T02:18:57.362Z,561.00
2024-02-05T02:19:57.453Z,561.00
2024-02-05T02:20:57.397Z,562.00
2024-02-05T02:21:57.548Z,561.00
2024-02-05T02:22:57.471Z,562.00
2024-02-05T02:23:57.519Z,565.00
2024-02-05T02:24:57.589Z,563.00
2024-02-05T02:25:57.632Z,563.00
2024-02-05T02:26:57.658Z,562.00
2024-02-05T02:27:57.736Z,562.00
2024-02-05T02:28:57.724Z,563.00
2024-02-05T02:29:57.769Z,562.00
2024-02-05T02:30:57.935Z,563.00
2024-02-05T02:31:57.847Z,562.00
2024-02-05T02:32:57.997Z,562.00
2024-02-05T02:33:58.069Z,562.00
2024-02-05T02:34:58.052Z,561.00
2024-02-05T02:35:58.054Z,558.00
2024-02-05T02:36:58.126Z,561.00
2024-02-05T02:37:58.169Z,562.00
2024-02-05T02:38:58.128Z,561.00
2024-02-05T02:39:58.216Z,559.00
2024-02-05T02:40:58.224Z,558.00
2024-02-05T02:41:58.285Z,559.00
2024-02-05T02:42:58.376Z,561.00
2024-02-05T02:43:58.370Z,562.00
2024-02-05T02:44:58.410Z,563.00
2024-02-05T02:45:58.511Z,564.00
2024-02-05T02:46:58.511Z,563.00
2024-02-05T02:47:58.582Z,563.00
2024-02-05T02:48:58.661Z,562.00
2024-02-05T02:49:58.706Z,560.00
2024-02-05T02:50:58.672Z,560.00
2024-02-05T02:51:58.751Z,563.00
2024-02-05T02:52:58.820Z,564.00
2024-02-05T02:53:58.826Z,564.00
2024-02-05T02:54:59.126Z,566.00
2024-02-05T02:55:59.362Z,565.00
2024-02-05T02:56:58.921Z,565.00
2024-02-05T02:57:58.918Z,566.00
2024-02-05T02:58:58.933Z,564.00
2024-02-05T02:59:58.970Z,564.00
2024-02-05T03:00:59.068Z,564.00
2024-02-05T03:01:59.223Z,563.00
2024-02-05T03:02:59.127Z,561.00
2024-02-05T03:03:59.251Z,559.00
2024-02-05T03:04:59.215Z,557.00
2024-02-05T03:05:59.196Z,557.00
2024-02-05T03:06:59.238Z,555.00
2024-02-05T03:07:59.284Z,553.00
2024-02-05T03:08:59.321Z,557.00
2024-02-05T03:09:59.342Z,559.00
2024-02-05T03:10:59.383Z,561.00
2024-02-05T03:11:59.454Z,564.00
2024-02-05T03:12:59.531Z,564.00
2024-02-05T03:13:59.507Z,565.00
2024-02-05T03:14:59.538Z,567.00
2024-02-05T03:15:59.627Z,566.00
2024-02-05T03:16:59.603Z,564.00
2024-02-05T03:17:59.679Z,563.00
2024-02-05T03:18:59.741Z,562.00
2024-02-05T03:19:59.915Z,562.00
2024-02-05T03:20:59.785Z,562.00
2024-02-05T03:21:59.885Z,564.00
2024-02-05T03:23:08.099Z,563.00
2024-02-05T03:24:00.888Z,565.00
2024-02-05T03:24:59.944Z,568.00
2024-02-05T03:25:59.863Z,568.00
2024-02-05T03:26:59.940Z,569.00
2024-02-05T03:27:59.946Z,572.00
2024-02-05T03:28:59.880Z,570.00
2024-02-05T03:29:59.883Z,569.00
2024-02-05T03:31:00.022Z,567.00
2024-02-05T03:31:59.938Z,568.00
2024-02-05T03:32:59.916Z,570.00
2024-02-05T03:33:59.956Z,569.00
2024-02-05T03:34:59.981Z,568.00
2024-02-05T03:35:59.888Z,567.00
2024-02-05T03:36:59.987Z,565.00
2024-02-05T03:38:00.017Z,564.00
2024-02-05T03:39:00.050Z,565.00
2024-02-05T03:40:00.226Z,564.00
2024-02-05T03:41:00.108Z,565.00
2024-02-05T03:42:00.115Z,567.00
2024-02-05T03:43:00.162Z,568.00
2024-02-05T03:44:00.184Z,568.00
2024-02-05T03:45:00.199Z,567.00
2024-02-05T03:46:00.279Z,567.00
2024-02-05T03:47:00.305Z,571.00
2024-02-05T03:48:00.373Z,570.00
2024-02-05T03:49:00.474Z,571.00
2024-02-05T03:50:00.531Z,570.00
2024-02-05T03:51:00.458Z,568.00
2024-02-05T03:52:00.485Z,569.00
2024-02-05T03:53:00.525Z,569.00
2024-02-05T03:54:00.557Z,568.00
2024-02-05T03:55:00.686Z,568.00
2024-02-05T03:56:00.653Z,566.00
2024-02-05T03:57:00.661Z,566.00
2024-02-05T03:58:00.856Z,565.00
2024-02-05T03:59:00.783Z,567.00
2024-02-05T04:00:00.778Z,567.00
2024-02-05T04:01:00.892Z,570.00
2024-02-05T04:02:00.912Z,568.00
2024-02-05T04:03:00.995Z,569.00
2024-02-05T04:04:01.128Z,568.00
2024-02-05T04:05:01.017Z,569.00
2024-02-05T04:06:01.046Z,565.00
2024-02-05T04:07:01.047Z,566.00
2024-02-05T04:08:01.098Z,567.00
2024-02-05T04:09:01.113Z,567.00
2024-02-05T04:10:01.224Z,568.00
2024-02-05T04:11:01.189Z,570.00
2024-02-05T04:12:01.243Z,570.00
2024-02-05T04:13:01.325Z,568.00
2024-02-05T04:14:01.335Z,571.00
2024-02-05T04:15:01.394Z,570.00
2024-02-05T04:16:01.559Z,569.00
2024-02-05T04:17:01.468Z,571.00
2024-02-05T04:18:01.585Z,572.00
2024-02-05T04:19:01.636Z,572.00
2024-02-05T04:20:01.672Z,574.00
2024-02-05T04:21:08.897Z,565.00
2024-02-05T04:22:08.880Z,570.00
2024-02-05T04:23:08.830Z,571.00
2024-02-05T04:24:08.832Z,568.00
2024-02-05T04:25:08.853Z,567.00
2024-02-05T04:26:08.842Z,562.00
2024-02-05T04:27:08.849Z,562.00
2024-02-05T04:28:08.966Z,560.00
2024-02-05T04:29:08.808Z,559.00
2024-02-05T04:30:08.827Z,561.00
2024-02-05T04:31:16.094Z,571.00
2024-02-05T04:32:16.005Z,570.00
2024-02-05T04:33:16.041Z,569.00
2024-02-05T04:34:16.083Z,569.00
2024-02-05T04:35:16.109Z,571.00
2024-02-05T04:36:16.026Z,568.00
2024-02-05T04:37:16.139Z,568.00
2024-02-05T04:38:15.998Z,565.00
2024-02-05T04:39:16.017Z,565.00
2024-02-05T04:40:16.098Z,565.00
2024-02-05T04:41:16.076Z,564.00
2024-02-05T04:42:16.043Z,564.00
2024-02-05T04:43:16.057Z,564.00
2024-02-05T04:44:16.032Z,565.00
2024-02-05T04:45:16.026Z,567.00
2024-02-05T04:46:16.112Z,567.00
2024-02-05T04:47:16.035Z,566.00
2024-02-05T04:48:16.023Z,568.00
2024-02-05T04:49:16.061Z,567.00
2024-02-05T04:50:16.104Z,570.00
2024-02-05T04:51:16.042Z,568.00
2024-02-05T04:52:16.108Z,570.00
2024-02-05T04:53:16.045Z,570.00
2024-02-05T04:54:16.016Z,573.00
2024-02-05T04:55:16.148Z,572.00
2024-02-05T04:56:16.026Z,573.00
2024-02-05T04:57:16.047Z,573.00
2024-02-05T04:58:16.098Z,572.00
2024-02-05T04:59:16.054Z,570.00
2024-02-05T05:00:16.043Z,569.00
2024-02-05T05:01:16.105Z,567.00
2024-02-05T05:02:16.124Z,566.00
2024-02-05T05:03:16.053Z,564.00
2024-02-05T05:04:16.171Z,565.00
2024-02-05T05:05:16.217Z,566.00
2024-02-05T05:06:16.264Z,567.00
2024-02-05T05:07:16.397Z,564.00
2024-02-05T05:08:16.242Z,563.00
2024-02-05T05:09:16.286Z,563.00
2024-02-05T05:10:16.371Z,563.00
2024-02-05T05:11:16.394Z,563.00
2024-02-05T05:12:16.428Z,559.00
2024-02-05T05:13:16.499Z,561.00
2024-02-05T05:14:16.502Z,560.00
2024-02-05T05:15:16.549Z,561.00
2024-02-05T05:16:16.700Z,561.00
2024-02-05T05:17:16.603Z,559.00
2024-02-05T05:18:16.770Z,559.00
2024-02-05T05:19:16.879Z,563.00
2024-02-05T05:20:16.789Z,566.00
2024-02-05T05:21:16.798Z,568.00
2024-02-05T05:22:16.996Z,568.00
2024-02-05T05:23:16.923Z,569.00
2024-02-05T05:24:16.983Z,567.00
2024-02-05T05:25:17.097Z,568.00
2024-02-05T05:26:17.069Z,569.00
2024-02-05T05:27:17.100Z,571.00
2024-02-05T05:28:17.222Z,569.00
2024-02-05T05:29:17.210Z,569.00
2024-02-05T05:30:17.219Z,571.00
2024-02-05T05:31:17.278Z,569.00
2024-02-05T05:32:17.336Z,568.00
2024-02-05T05:33:17.371Z,567.00
2024-02-05T05:34:17.492Z,566.00
2024-02-05T05:35:17.472Z,566.00
2024-02-05T05:36:17.484Z,565.00
2024-02-05T05:37:17.784Z,566.00
2024-02-05T05:38:17.610Z,562.00
2024-02-05T05:39:17.595Z,562.00
2024-02-05T05:40:17.681Z,563.00
2024-02-05T05:41:17.676Z,565.00
2024-02-05T05:42:17.720Z,567.00
2024-02-05T05:43:17.879Z,568.00
2024-02-05T05:44:17.842Z,567.00
2024-02-05T05:45:17.868Z,566.00
2024-02-05T05:46:18.073Z,566.00
2024-02-05T05:47:17.998Z,565.00
2024-02-05T05:48:18.071Z,566.00
2024-02-05T05:49:18.183Z,565.00
2024-02-05T05:50:18.228Z,565.00
2024-02-05T05:51:18.156Z,567.00
2024-02-05T05:52:18.248Z,568.00
2024-02-05T05:53:18.248Z,573.00
2024-02-05T05:54:18.312Z,572.00
2024-02-05T05:55:18.369Z,573.00
2024-02-05T05:56:18.418Z,571.00
2024-02-05T05:57:18.430Z,569.00
2024-02-05T05:58:18.549Z,569.00
2024-02-05T05:59:18.584Z,567.00
2024-02-05T06:00:18.609Z,569.00
2024-02-05T06:01:41.211Z,571.00
2024-02-05T06:02:18.678Z,570.00
2024-02-05T06:03:18.630Z,570.00
2024-02-05T06:04:18.816Z,570.00
2024-02-05T06:05:18.737Z,567.00
2024-02-05T06:06:18.676Z,566.00
2024-02-05T06:07:18.682Z,566.00
2024-02-05T06:08:18.700Z,567.00
2024-02-05T06:09:18.660Z,566.00
2024-02-05T06:10:18.757Z,565.00
2024-02-05T06:11:18.672Z,566.00
2024-02-05T06:12:18.696Z,564.00
2024-02-05T06:13:18.790Z,564.00
2024-02-05T06:14:18.728Z,562.00
2024-02-05T06:15:18.691Z,563.00
2024-02-05T06:16:18.722Z,564.00
2024-02-05T06:17:18.639Z,565.00
2024-02-05T06:18:18.704Z,568.00
2024-02-05T06:19:18.709Z,567.00
2024-02-05T06:20:18.932Z,569.00
2024-02-05T06:21:18.724Z,567.00
2024-02-05T06:22:18.934Z,566.00
2024-02-05T06:23:18.768Z,566.00
2024-02-05T06:24:18.831Z,568.00
2024-02-05T06:25:18.870Z,569.00
2024-02-05T06:26:18.888Z,569.00
2024-02-05T06:27:18.946Z,569.00
2024-02-05T06:28:19.051Z,570.00
2024-02-05T06:29:19.082Z,569.00
2024-02-05T06:30:19.090Z,567.00
2024-02-05T06:31:19.219Z,567.00
2024-02-05T06:32:19.187Z,565.00
2024-02-05T06:33:19.349Z,569.00
2024-02-05T06:34:19.752Z,611.00
2024-02-05T06:35:19.434Z,620.00
2024-02-05T06:36:19.402Z,621.00
2024-02-05T06:37:19.469Z,618.00
2024-02-05T06:38:19.474Z,622.00
2024-02-05T06:39:19.712Z,627.00
2024-02-05T06:40:20.742Z,617.00
2024-02-05T06:41:19.564Z,613.00
2024-02-05T06:42:19.617Z,617.00
2024-02-05T06:43:20.342Z,630.00
2024-02-05T06:44:21.345Z,654.00
2024-02-05T06:45:19.790Z,662.00
2024-02-05T06:46:45.398Z,655.00
2024-02-05T06:47:19.782Z,660.00
2024-02-05T06:48:19.893Z,682.00
2024-02-05T06:49:19.909Z,700.00
2024-02-05T06:50:19.796Z,726.00
2024-02-05T06:51:19.801Z,737.00
2024-02-05T06:52:20.130Z,748.00
2024-02-05T06:53:19.834Z,757.00
2024-02-05T06:54:19.798Z,763.00
2024-02-05T06:55:19.848Z,779.00
2024-02-05T06:56:19.792Z,809.00
2024-02-05T06:57:19.802Z,857.00
2024-02-05T06:58:19.845Z,901.00
2024-02-05T06:59:19.816Z,915.00
2024-02-05T07:00:19.786Z,949.00
2024-02-05T07:01:19.841Z,962.00
2024-02-05T07:02:20.722Z,973.00
2024-02-05T07:03:19.810Z,986.00
2024-02-05T07:04:20.109Z,998.00
2024-02-05T07:05:19.893Z,1014.00
2024-02-05T07:06:19.827Z,1061.00
2024-02-05T07:07:19.848Z,1079.00
2024-02-05T07:08:19.839Z,1130.00
2024-02-05T07:09:19.844Z,1154.00
2024-02-05T07:10:20.677Z,1157.00
2024-02-05T07:11:19.859Z,1196.00
2024-02-05T07:12:19.863Z,1284.00
2024-02-05T07:13:20.200Z,1304.00
2024-02-05T07:14:20.288Z,1302.00
2024-02-05T07:15:20.022Z,1319.00
2024-02-05T07:16:20.145Z,1334.00
2024-02-05T07:17:20.096Z,1352.00
2024-02-05T07:18:20.331Z,1366.00
2024-02-05T07:19:20.251Z,1388.00
2024-02-05T07:20:20.311Z,1417.00
2024-02-05T07:21:20.351Z,1440.00
2024-02-05T07:22:20.401Z,1448.00
2024-02-05T07:23:20.385Z,1459.00
2024-02-05T07:24:20.468Z,1478.00
2024-02-05T07:25:20.714Z,1492.00
2024-02-05T07:26:20.502Z,1506.00
2024-02-05T07:27:20.505Z,1538.00
2024-02-05T07:28:20.639Z,1612.00
2024-02-05T07:29:20.636Z,1628.00
2024-02-05T07:30:20.709Z,1639.00
2024-02-05T07:31:20.881Z,1651.00
2024-02-05T07:32:20.752Z,1657.00
2024-02-05T07:33:20.832Z,1663.00
2024-02-05T07:34:20.873Z,1676.00
2024-02-05T07:35:20.908Z,1716.00
2024-02-05T07:36:20.905Z,1729.00
2024-02-05T07:37:21.086Z,1797.00
2024-02-05T07:38:21.053Z,1395.00
2024-02-05T07:39:21.281Z,1043.00
2024-02-05T07:40:21.111Z,889.00
2024-02-05T07:41:21.046Z,792.00
2024-02-05T07:42:21.102Z,929.00
2024-02-05T07:43:21.280Z,978.00
2024-02-05T07:44:21.221Z,973.00
2024-02-05T07:45:21.748Z,998.00
2024-02-05T07:46:21.346Z,1038.00
2024-02-05T07:47:22.293Z,1095.00
2024-02-05T07:48:21.564Z,1110.00
2024-02-05T07:49:21.606Z,1124.00
2024-02-05T07:50:21.430Z,1188.00
2024-02-05T07:51:22.100Z,1235.00
2024-02-05T07:52:21.609Z,1253.00
2024-02-05T07:53:21.584Z,1281.00
2024-02-05T07:54:21.628Z,1313.00
2024-02-05T07:55:21.660Z,1322.00
2024-02-05T07:56:21.625Z,1347.00
2024-02-05T07:57:21.673Z,1369.00
2024-02-05T07:58:21.793Z,1388.00
2024-02-05T07:59:21.719Z,1414.00
2024-02-05T08:00:21.770Z,1444.00
2024-02-05T08:01:21.837Z,1463.00
2024-02-05T08:02:21.873Z,1483.00
2024-02-05T08:03:21.942Z,1505.00
2024-02-05T08:04:22.019Z,1512.00
2024-02-05T08:05:22.326Z,1531.00
2024-02-05T08:06:22.066Z,1541.00
2024-02-05T08:07:22.206Z,1540.00
2024-02-05T08:08:22.080Z,1536.00
2024-02-05T08:09:22.755Z,1560.00
2024-02-05T08:10:22.329Z,1557.00
2024-02-05T08:11:22.202Z,1558.00
2024-02-05T08:12:22.260Z,1560.00
2024-02-05T08:13:22.327Z,1571.00
2024-02-05T08:14:22.899Z,1585.00
2024-02-05T08:15:22.346Z,1565.00
2024-02-05T08:16:22.454Z,1519.00
2024-02-05T08:17:22.496Z,1544.00
2024-02-05T08:18:22.500Z,1553.00
2024-02-05T08:19:22.850Z,1557.00
2024-02-05T08:20:22.510Z,1584.00
2024-02-05T08:21:22.593Z,1596.00
2024-02-05T08:22:22.688Z,1607.00
2024-02-05T08:23:22.645Z,1621.00
2024-02-05T08:24:22.645Z,1626.00
2024-02-05T08:25:22.921Z,1625.00
2024-02-05T08:26:22.696Z,1639.00
2024-02-05T08:27:22.700Z,1699.00
2024-02-05T08:28:22.908Z,1695.00
2024-02-05T08:29:22.793Z,1687.00
2024-02-05T08:30:22.766Z,1658.00
2024-02-05T08:31:23.033Z,1120.00
2024-02-05T08:32:22.866Z,946.00
2024-02-05T08:33:22.984Z,871.00
2024-02-05T08:34:23.442Z,810.00
2024-02-05T08:35:22.984Z,754.00
2024-02-05T08:36:22.997Z,741.00
2024-02-05T08:37:23.238Z,731.00
2024-02-05T08:38:23.057Z,733.00
2024-02-05T08:39:23.254Z,703.00
2024-02-05T08:40:23.256Z,718.00
2024-02-05T08:41:23.170Z,727.00
2024-02-05T08:42:31.824Z,745.00
2024-02-05T08:43:24.296Z,824.00
2024-02-05T08:44:23.187Z,833.00
2024-02-05T08:45:23.226Z,839.00
2024-02-05T08:46:23.233Z,872.00
2024-02-05T08:47:23.235Z,930.00
2024-02-05T08:48:23.380Z,950.00
2024-02-05T08:49:23.385Z,971.00
2024-02-05T08:50:23.218Z,992.00
2024-02-05T08:51:23.204Z,1017.00
2024-02-05T08:52:23.292Z,1020.00
2024-02-05T08:53:23.268Z,1028.00
2024-02-05T08:54:23.216Z,1039.00
2024-02-05T08:55:23.314Z,1061.00
2024-02-05T08:56:23.313Z,1102.00
2024-02-05T08:57:23.399Z,1115.00
2024-02-05T08:58:23.378Z,1130.00
2024-02-05T08:59:23.402Z,1144.00
2024-02-05T09:00:23.400Z,1215.00
2024-02-05T09:01:23.636Z,1239.00
2024-02-05T09:02:23.756Z,1265.00
2024-02-05T09:03:23.598Z,1279.00
2024-02-05T09:04:23.629Z,1275.00
2024-02-05T09:05:33.464Z,1312.00
2024-02-05T09:06:24.655Z,1317.00
2024-02-05T09:07:23.647Z,1340.00
2024-02-05T09:08:23.596Z,1347.00
2024-02-05T09:09:23.776Z,1349.00
2024-02-05T09:10:23.635Z,1366.00
2024-02-05T09:11:23.602Z,1372.00
2024-02-05T09:12:23.596Z,1377.00
2024-02-05T09:13:23.766Z,1381.00
2024-02-05T09:14:23.615Z,1392.00
2024-02-05T09:15:23.648Z,1406.00
2024-02-05T09:16:23.692Z,1432.00
2024-02-05T09:17:23.603Z,1442.00
2024-02-05T09:18:23.721Z,1431.00
2024-02-05T09:19:23.649Z,1440.00
2024-02-05T09:20:23.663Z,1442.00
2024-02-05T09:21:24.294Z,1444.00
2024-02-05T09:22:23.719Z,1447.00
2024-02-05T09:23:23.698Z,1468.00
2024-02-05T09:24:23.713Z,1506.00
2024-02-05T09:25:23.820Z,1549.00
2024-02-05T09:26:23.810Z,1527.00
2024-02-05T09:27:23.783Z,1499.00
2024-02-05T09:28:23.913Z,1510.00
2024-02-05T09:29:24.295Z,1519.00
2024-02-05T09:30:23.928Z,1582.00
2024-02-05T09:31:24.027Z,1579.00
2024-02-05T09:32:23.889Z,1587.00
2024-02-05T09:33:23.971Z,1473.00
2024-02-05T09:34:24.111Z,1416.00
2024-02-05T09:35:24.064Z,1397.00
2024-02-05T09:36:24.060Z,1376.00
2024-02-05T09:37:24.209Z,1165.00
2024-02-05T09:38:24.135Z,1175.00
2024-02-05T09:39:24.289Z,1192.00
2024-02-05T09:40:24.248Z,1144.00
2024-02-05T09:41:24.224Z,1132.00
2024-02-05T09:42:24.272Z,1179.00
2024-02-05T09:43:24.344Z,1120.00
2024-02-05T09:44:24.326Z,1129.00
2024-02-05T09:45:24.329Z,1090.00
2024-02-05T09:46:24.461Z,1086.00
2024-02-05T09:47:24.422Z,1037.00
2024-02-05T09:48:30.650Z,1005.00
2024-02-05T09:49:25.999Z,993.00
2024-02-05T09:50:24.673Z,923.00
2024-02-05T09:51:24.429Z,916.00
2024-02-05T09:52:24.513Z,860.00
2024-02-05T09:53:24.454Z,863.00
2024-02-05T09:54:24.416Z,852.00
2024-02-05T09:55:25.288Z,796.00
2024-02-05T09:56:24.433Z,800.00
2024-02-05T09:57:24.447Z,805.00
2024-02-05T09:58:24.442Z,812.00
2024-02-05T09:59:24.423Z,818.00
2024-02-05T10:00:24.421Z,816.00
2024-02-05T10:01:24.524Z,819.00
2024-02-05T10:02:24.445Z,837.00
2024-02-05T10:03:24.584Z,906.00
2024-02-05T10:04:24.615Z,923.00
2024-02-05T10:05:24.581Z,927.00
2024-02-05T10:06:24.611Z,876.00
2024-02-05T10:07:24.736Z,825.00
2024-02-05T10:08:24.697Z,840.00
2024-02-05T10:09:24.753Z,742.00
2024-02-05T10:10:24.760Z,702.00
2024-02-05T10:11:24.895Z,673.00
2024-02-05T10:12:24.824Z,673.00
2024-02-05T10:13:24.891Z,696.00
2024-02-05T10:14:27.729Z,704.00
2024-02-05T10:15:24.900Z,746.00
2024-02-05T10:16:24.949Z,769.00
2024-02-05T10:17:24.855Z,780.00
2024-02-05T10:18:25.070Z,826.00
2024-02-05T10:19:24.915Z,853.00
2024-02-05T10:20:24.891Z,845.00
2024-02-05T10:21:24.882Z,848.00
2024-02-05T10:22:24.914Z,832.00
2024-02-05T10:23:27.861Z,845.00
2024-02-05T10:24:24.889Z,854.00
2024-02-05T10:25:25.005Z,873.00
2024-02-05T10:26:24.955Z,874.00
2024-02-05T10:27:24.930Z,868.00
2024-02-05T10:28:25.003Z,859.00
2024-02-05T10:29:24.902Z,861.00
2024-02-05T10:30:24.914Z,861.00
2024-02-05T10:31:25.096Z,858.00
2024-02-05T10:32:24.963Z,865.00
2024-02-05T10:33:24.918Z,872.00
2024-02-05T10:34:25.069Z,881.00
2024-02-05T10:35:24.905Z,884.00
2024-02-05T10:36:24.910Z,926.00
2024-02-05T10:37:25.061Z,935.00
2024-02-05T10:38:24.914Z,937.00
2024-02-05T10:39:25.384Z,937.00
2024-02-05T10:40:25.044Z,939.00
2024-02-05T10:41:24.887Z,923.00
2024-02-05T10:42:24.921Z,766.00
2024-02-05T10:43:24.962Z,725.00
2024-02-05T10:44:33.850Z,705.00
2024-02-05T10:45:26.352Z,700.00
2024-02-05T10:46:25.005Z,683.00
2024-02-05T10:47:24.887Z,663.00
2024-02-05T10:48:25.004Z,659.00
2024-02-05T10:49:25.896Z,675.00
2024-02-05T10:50:24.956Z,695.00
2024-02-05T10:51:24.932Z,714.00
2024-02-05T10:52:25.005Z,713.00
2024-02-05T10:53:24.955Z,728.00
2024-02-05T10:54:24.913Z,812.00
2024-02-05T10:55:24.961Z,924.00
2024-02-05T10:56:24.930Z,850.00
2024-02-05T10:57:25.423Z,834.00
2024-02-05T10:58:25.089Z,890.00
2024-02-05T10:59:25.077Z,806.00
2024-02-05T11:00:25.320Z,794.00
2024-02-05T11:01:25.227Z,794.00
2024-02-05T11:02:25.096Z,810.00
2024-02-05T11:03:25.131Z,927.00
2024-02-05T11:04:25.205Z,920.00
2024-02-05T11:05:25.468Z,939.00
2024-02-05T11:06:25.299Z,943.00
2024-02-05T11:07:25.336Z,931.00
2024-02-05T11:08:25.355Z,902.00
2024-02-05T11:09:25.383Z,910.00
2024-02-05T11:10:25.434Z,921.00
2024-02-05T11:11:25.292Z,932.00
2024-02-05T11:12:25.325Z,949.00
2024-02-05T11:13:25.468Z,963.00
2024-02-05T11:14:25.577Z,968.00
2024-02-05T11:15:25.608Z,973.00
2024-02-05T11:16:25.626Z,996.00
2024-02-05T11:17:25.704Z,1036.00
2024-02-05T11:18:25.632Z,1137.00
2024-02-05T11:19:25.805Z,1148.00
2024-02-05T11:20:25.748Z,1132.00
2024-02-05T11:21:25.796Z,1069.00
2024-02-05T11:22:25.932Z,1052.00
2024-02-05T11:23:25.920Z,1037.00
2024-02-05T11:24:25.917Z,1185.00
2024-02-05T11:25:27.012Z,1052.00
2024-02-05T11:26:26.042Z,1056.00
2024-02-05T11:27:26.047Z,1049.00
2024-02-05T11:28:26.937Z,1040.00
2024-02-05T11:29:26.164Z,1040.00
2024-02-05T11:30:26.183Z,1047.00
2024-02-05T11:31:26.314Z,1043.00
2024-02-05T11:32:26.250Z,1045.00
2024-02-05T11:33:26.299Z,1046.00
2024-02-05T11:34:26.535Z,1055.00
2024-02-05T11:35:26.945Z,1097.00
2024-02-05T11:36:26.483Z,1090.00
2024-02-05T11:37:26.641Z,898.00
2024-02-05T11:38:26.559Z,780.00
2024-02-05T11:39:26.570Z,734.00
2024-02-05T11:40:27.618Z,740.00
2024-02-05T11:41:26.632Z,741.00
2024-02-05T11:42:26.705Z,744.00
2024-02-05T11:43:27.083Z,759.00
2024-02-05T11:44:26.791Z,685.00
2024-02-05T11:45:26.893Z,672.00
2024-02-05T11:46:26.924Z,671.00
2024-02-05T11:47:26.959Z,675.00
2024-02-05T11:48:27.072Z,679.00
2024-02-05T11:49:27.092Z,681.00
2024-02-05T11:50:27.078Z,682.00
2024-02-05T11:51:27.801Z,683.00
2024-02-05T11:52:27.285Z,685.00
2024-02-05T11:53:27.205Z,694.00
2024-02-05T11:54:27.251Z,704.00
2024-02-05T11:55:27.307Z,733.00
2024-02-05T11:56:27.279Z,706.00
2024-02-05T11:57:27.335Z,718.00
2024-02-05T11:58:27.513Z,725.00
2024-02-05T11:59:27.335Z,722.00
2024-02-05T12:00:27.505Z,729.00
2024-02-05T12:01:28.004Z,784.00
2024-02-05T12:02:27.408Z,796.00
2024-02-05T12:03:27.437Z,797.00
2024-02-05T12:04:27.518Z,799.00
2024-02-05T12:05:27.552Z,802.00
2024-02-05T12:06:27.565Z,812.00
2024-02-05T12:07:27.628Z,811.00
2024-02-05T12:08:27.699Z,787.00
2024-02-05T12:09:27.777Z,798.00
2024-02-05T12:10:27.802Z,776.00
2024-02-05T12:11:27.956Z,774.00
2024-02-05T12:12:27.697Z,779.00
2024-02-05T12:13:27.823Z,798.00
2024-02-05T12:14:27.816Z,806.00
2024-02-05T12:15:27.808Z,808.00
2024-02-05T12:16:28.045Z,812.00
2024-02-05T12:17:27.863Z,839.00
2024-02-05T12:18:28.042Z,838.00
2024-02-05T12:19:27.976Z,834.00
2024-02-05T12:20:28.164Z,838.00
2024-02-05T12:21:28.133Z,847.00
2024-02-05T12:22:28.239Z,857.00
2024-02-05T12:23:28.133Z,872.00
2024-02-05T12:24:28.139Z,887.00